createdAt,value
2023-03-14T00:01:33.177Z,100.00
2023-03-14T00:04:00.025Z,100.00
2023-03-14T00:06:29.639Z,100.00
2023-03-14T00:08:58.705Z,100.00
2023-03-14T00:11:25.198Z,100.00
2023-03-14T00:13:53.134Z,100.00
2023-03-14T00:16:20.969Z,100.00
2023-03-14T00:18:49.617Z,100.00
2023-03-14T00:21:16.842Z,100.00
2023-03-14T00:23:44.121Z,100.00
2023-03-14T00:26:13.708Z,100.00
2023-03-14T00:28:41.496Z,100.00
2023-03-14T00:31:09.873Z,100.00
2023-03-14T00:33:37.044Z,100.00
2023-03-14T00:36:07.076Z,100.00
2023-03-14T00:38:34.472Z,100.00
2023-03-14T00:41:04.888Z,100.00
2023-03-14T00:43:31.642Z,100.00
2023-03-14T00:45:58.463Z,100.00
2023-03-14T00:48:25.082Z,100.00
2023-03-14T00:50:51.562Z,100.00
2023-03-14T00:53:25.446Z,100.00
2023-03-14T00:55:52.014Z,100.00
2023-03-14T00:58:19.759Z,100.00
2023-03-14T01:00:46.828Z,100.00
2023-03-14T01:03:15.140Z,100.00
2023-03-14T01:05:42.153Z,100.00
2023-03-14T01:08:08.562Z,100.00
2023-03-14T01:10:38.936Z,100.00
2023-03-14T01:13:05.372Z,100.00
2023-03-14T01:15:34.028Z,100.00
2023-03-14T01:18:01.428Z,100.00
2023-03-14T01:20:31.274Z,100.00
2023-03-14T01:22:57.999Z,100.00
2023-03-14T01:25:24.699Z,100.00
2023-03-14T01:27:53.967Z,100.00
2023-03-14T01:30:20.465Z,100.00
2023-03-14T01:32:47.187Z,100.00
2023-03-14T01:35:13.942Z,100.00
2023-03-14T01:37:40.397Z,100.00
2023-03-14T01:40:07.243Z,100.00
2023-03-14T01:42:33.938Z,100.00
2023-03-14T01:45:02.194Z,100.00
2023-03-14T01:47:28.664Z,100.00
2023-03-14T01:50:00.468Z,100.00
2023-03-14T01:52:48.823Z,100.00
2023-03-14T01:55:27.680Z,100.00
2023-03-14T01:57:59.828Z,100.00
2023-03-14T02:00:26.655Z,100.00
2023-03-14T02:02:58.734Z,100.00
2023-03-14T02:05:33.281Z,100.00
2023-03-14T02:08:01.390Z,100.00
2023-03-14T02:10:31.742Z,100.00
2023-03-14T02:13:03.688Z,100.00
2023-03-14T02:15:31.439Z,100.00
2023-03-14T02:17:59.184Z,100.00
2023-03-14T02:20:55.567Z,100.00
2023-03-14T02:23:41.005Z,100.00
2023-03-14T02:26:21.393Z,100.00
2023-03-14T02:28:48.075Z,100.00
2023-03-14T02:31:14.593Z,100.00
2023-03-14T02:33:43.817Z,100.00
2023-03-14T02:36:14.652Z,100.00
2023-03-14T02:38:47.667Z,100.00
2023-03-14T02:41:15.066Z,100.00
2023-03-14T02:43:41.546Z,100.00
2023-03-14T02:46:12.950Z,100.00
2023-03-14T02:48:46.176Z,100.00
2023-03-14T02:51:14.487Z,100.00
2023-03-14T02:53:41.491Z,100.00
2023-03-14T02:56:09.128Z,100.00
2023-03-14T02:58:36.830Z,100.00
2023-03-14T03:01:04.186Z,100.00
2023-03-14T03:03:31.009Z,100.00
2023-03-14T03:05:59.007Z,100.00
2023-03-14T03:08:28.242Z,100.00
2023-03-14T03:10:55.224Z,100.00
2023-03-14T03:13:22.029Z,100.00
2023-03-14T03:15:48.603Z,100.00
2023-03-14T03:18:16.775Z,100.00
2023-03-14T03:20:45.945Z,100.00
2023-03-14T03:23:12.836Z,100.00
2023-03-14T03:25:39.609Z,100.00
2023-03-14T03:28:06.151Z,100.00
2023-03-14T03:30:32.648Z,100.00
2023-03-14T03:32:59.161Z,100.00
2023-03-14T03:35:25.981Z,100.00
2023-03-14T03:37:52.482Z,100.00
2023-03-14T03:40:18.840Z,100.00
2023-03-14T03:42:45.479Z,100.00
2023-03-14T03:45:11.869Z,100.00
2023-03-14T03:47:38.257Z,100.00
2023-03-14T03:50:05.257Z,100.00
2023-03-14T03:52:31.662Z,100.00
2023-03-14T03:54:58.406Z,100.00
2023-03-14T03:57:24.821Z,100.00
2023-03-14T03:59:51.346Z,100.00
2023-03-14T04:02:17.746Z,100.00
2023-03-14T04:04:44.524Z,100.00
2023-03-14T04:07:11.059Z,100.00
2023-03-14T04:09:38.933Z,100.00
2023-03-14T04:12:06.986Z,100.00
2023-03-14T04:14:34.214Z,100.00
2023-03-14T04:17:01.840Z,100.00
2023-03-14T04:19:28.316Z,100.00
2023-03-14T04:21:54.706Z,100.00
2023-03-14T04:24:21.086Z,100.00
2023-03-14T04:26:47.446Z,100.00
2023-03-14T04:29:13.795Z,100.00
2023-03-14T04:31:40.283Z,100.00
2023-03-14T04:34:07.965Z,100.00
2023-03-14T04:36:34.660Z,100.00
2023-03-14T04:39:01.315Z,100.00
2023-03-14T04:41:27.737Z,100.00
2023-03-14T04:43:54.120Z,100.00
2023-03-14T04:46:20.784Z,100.00
2023-03-14T04:48:47.205Z,100.00
2023-03-14T04:51:13.911Z,100.00
2023-03-14T04:53:40.399Z,100.00
2023-03-14T04:56:07.184Z,100.00
2023-03-14T04:58:33.586Z,100.00
2023-03-14T05:01:05.173Z,100.00
2023-03-14T05:03:31.660Z,100.00
2023-03-14T05:05:58.144Z,100.00
2023-03-14T05:08:24.816Z,100.00
2023-03-14T05:10:58.345Z,100.00
2023-03-14T05:13:25.179Z,100.00
2023-03-14T05:15:51.761Z,100.00
2023-03-14T05:18:18.943Z,100.00
2023-03-14T05:20:45.469Z,100.00
2023-03-14T05:23:12.146Z,100.00
2023-03-14T05:25:38.870Z,100.00
2023-03-14T05:28:05.319Z,100.00
2023-03-14T05:30:31.679Z,100.00
2023-03-14T05:32:59.201Z,100.00
2023-03-14T05:35:25.887Z,100.00
2023-03-14T05:37:52.431Z,100.00
2023-03-14T05:40:18.940Z,100.00
2023-03-14T05:42:45.436Z,100.00
2023-03-14T05:45:12.168Z,100.00
2023-03-14T05:47:38.512Z,100.00
2023-03-14T05:50:08.717Z,100.00
2023-03-14T05:52:35.108Z,100.00
2023-03-14T05:55:02.093Z,100.00
2023-03-14T05:57:28.639Z,100.00
2023-03-14T05:59:55.016Z,100.00
2023-03-14T06:02:21.463Z,100.00
2023-03-14T06:04:47.841Z,100.00
2023-03-14T06:07:16.818Z,100.00
2023-03-14T06:09:43.362Z,100.00
2023-03-14T06:12:10.119Z,100.00
2023-03-14T06:14:36.464Z,100.00
2023-03-14T06:17:03.130Z,100.00
2023-03-14T06:19:29.809Z,100.00
2023-03-14T06:22:01.253Z,100.00
2023-03-14T06:24:29.523Z,100.00
2023-03-14T06:26:56.311Z,100.00
2023-03-14T06:29:22.697Z,100.00
2023-03-14T06:31:49.211Z,100.00
2023-03-14T06:34:15.964Z,100.00
2023-03-14T06:36:42.652Z,100.00
2023-03-14T06:39:09.133Z,100.00
2023-03-14T06:41:35.513Z,100.00
2023-03-14T06:44:02.021Z,100.00
2023-03-14T06:46:28.798Z,100.00
2023-03-14T06:48:55.201Z,100.00
2023-03-14T06:51:21.900Z,100.00
2023-03-14T06:53:48.639Z,100.00
2023-03-14T06:56:15.307Z,100.00
2023-03-14T06:58:42.108Z,100.00
2023-03-14T07:01:23.342Z,100.00
2023-03-14T07:03:49.712Z,100.00
2023-03-14T07:06:17.285Z,100.00
2023-03-14T07:08:43.809Z,100.00
2023-03-14T07:11:10.430Z,100.00
2023-03-14T07:13:37.169Z,100.00
2023-03-14T07:16:04.094Z,100.00
2023-03-14T07:18:30.555Z,100.00
2023-03-14T07:20:57.036Z,100.00
2023-03-14T07:23:23.510Z,100.00
2023-03-14T07:25:52.961Z,100.00
2023-03-14T07:28:19.384Z,100.00
2023-03-14T07:30:48.179Z,100.00
2023-03-14T07:33:14.639Z,100.00
2023-03-14T07:35:41.311Z,100.00
2023-03-14T07:38:07.876Z,100.00
2023-03-14T07:40:34.262Z,100.00
2023-03-14T07:43:02.959Z,100.00
2023-03-14T07:45:29.679Z,100.00
2023-03-14T07:47:56.439Z,100.00
2023-03-14T07:50:23.194Z,100.00
2023-03-14T07:52:50.745Z,100.00
2023-03-14T07:55:17.246Z,100.00
2023-03-14T07:57:44.030Z,100.00
2023-03-14T08:00:11.153Z,100.00
2023-03-14T08:02:38.293Z,100.00
2023-03-14T08:05:05.041Z,100.00
2023-03-14T08:07:31.518Z,100.00
2023-03-14T08:09:58.186Z,100.00
2023-03-14T08:12:24.511Z,100.00
2023-03-14T08:14:51.265Z,100.00
2023-03-14T08:17:18.717Z,100.00
2023-03-14T08:19:48.007Z,100.00
2023-03-14T08:22:19.849Z,100.00
2023-03-14T08:24:50.196Z,100.00
2023-03-14T08:27:17.061Z,100.00
2023-03-14T08:29:43.651Z,100.00
2023-03-14T08:32:10.514Z,100.00
2023-03-14T08:34:37.629Z,100.00
2023-03-14T08:37:06.546Z,100.00
2023-03-14T08:39:37.162Z,100.00
2023-03-14T08:42:03.967Z,100.00
2023-03-14T08:44:30.460Z,100.00
2023-03-14T08:46:57.141Z,100.00
2023-03-14T08:49:23.759Z,100.00
2023-03-14T08:51:50.183Z,100.00
2023-03-14T08:54:17.172Z,100.00
2023-03-14T08:56:43.553Z,100.00
2023-03-14T08:59:10.169Z,100.00
2023-03-14T09:01:36.967Z,100.00
2023-03-14T09:04:03.983Z,100.00
2023-03-14T09:06:30.540Z,100.00
2023-03-14T09:08:57.221Z,100.00
2023-03-14T09:11:23.752Z,100.00
2023-03-14T09:13:50.170Z,100.00
2023-03-14T09:16:16.820Z,100.00
2023-03-14T09:18:43.455Z,100.00
2023-03-14T09:21:10.160Z,100.00
2023-03-14T09:23:36.555Z,100.00
2023-03-14T09:26:03.242Z,100.00
2023-03-14T09:28:29.661Z,100.00
2023-03-14T09:30:56.147Z,100.00
2023-03-14T09:33:23.408Z,100.00
2023-03-14T09:35:49.956Z,100.00
2023-03-14T09:38:16.906Z,100.00
2023-03-14T09:40:43.747Z,100.00
2023-03-14T09:43:14.988Z,100.00
2023-03-14T09:45:44.102Z,100.00
2023-03-14T09:48:17.260Z,100.00
2023-03-14T09:50:49.773Z,100.00
2023-03-14T09:53:27.631Z,100.00
2023-03-14T09:55:54.615Z,100.00
2023-03-14T09:58:23.345Z,100.00
2023-03-14T10:00:53.175Z,100.00
2023-03-14T10:03:29.592Z,100.00
2023-03-14T10:05:57.172Z,100.00
2023-03-14T10:08:26.476Z,100.00
2023-03-14T10:10:53.290Z,100.00
2023-03-14T10:13:30.034Z,100.00
2023-03-14T10:16:02.386Z,100.00
2023-03-14T10:18:33.287Z,100.00
2023-03-14T10:21:19.196Z,100.00
2023-03-14T10:23:47.995Z,100.00
2023-03-14T10:26:25.325Z,100.00
2023-03-14T10:29:03.844Z,100.00
2023-03-14T10:31:47.962Z,100.00
2023-03-14T10:34:18.676Z,100.00
2023-03-14T10:36:46.455Z,100.00
2023-03-14T10:39:19.750Z,100.00
2023-03-14T10:42:13.464Z,100.00
2023-03-14T10:44:40.917Z,100.00
2023-03-14T10:47:20.312Z,100.00
2023-03-14T10:49:49.255Z,100.00
2023-03-14T10:52:15.868Z,100.00
2023-03-14T10:54:42.576Z,100.00
2023-03-14T10:57:08.986Z,100.00
2023-03-14T10:59:42.866Z,100.00
2023-03-14T11:02:36.087Z,100.00
2023-03-14T11:05:22.728Z,100.00
2023-03-14T11:07:49.415Z,100.00
2023-03-14T11:10:25.651Z,100.00
2023-03-14T11:13:10.752Z,100.00
2023-03-14T11:15:40.301Z,100.00
2023-03-14T11:18:35.043Z,100.00
2023-03-14T11:21:22.872Z,100.00
2023-03-14T11:24:22.734Z,100.00
2023-03-14T11:27:17.865Z,100.00
2023-03-14T11:30:02.845Z,100.00
2023-03-14T11:32:47.905Z,100.00
2023-03-14T11:35:28.260Z,100.00
2023-03-14T11:38:13.617Z,100.00
2023-03-14T11:40:40.357Z,100.00
2023-03-14T11:43:15.830Z,100.00
2023-03-14T11:45:44.438Z,100.00
2023-03-14T11:48:29.999Z,100.00
2023-03-14T11:51:00.158Z,100.00
2023-03-14T11:54:07.483Z,100.00
2023-03-14T11:56:36.529Z,100.00
2023-03-14T11:59:10.424Z,100.00
2023-03-14T12:01:58.856Z,100.00
2023-03-14T12:05:02.594Z,100.00
2023-03-14T12:07:43.436Z,100.00
2023-03-14T12:10:10.865Z,100.00
2023-03-14T12:12:38.045Z,100.00
2023-03-14T12:15:06.378Z,100.00
2023-03-14T12:17:41.926Z,100.00
2023-03-14T12:20:20.451Z,100.00
2023-03-14T12:22:53.012Z,100.00
2023-03-14T12:25:25.996Z,100.00
2023-03-14T12:27:55.367Z,100.00
2023-03-14T12:30:31.345Z,100.00
2023-03-14T12:33:10.462Z,100.00
2023-03-14T12:35:46.720Z,100.00
2023-03-14T12:38:32.077Z,100.00
2023-03-14T12:41:26.268Z,100.00
2023-03-14T12:43:53.068Z,100.00
2023-03-14T12:46:21.111Z,100.00
2023-03-14T12:49:18.220Z,100.00
2023-03-14T12:51:45.159Z,100.00
2023-03-14T12:54:28.567Z,100.00
2023-03-14T12:57:13.280Z,100.00
2023-03-14T12:59:48.599Z,100.00
2023-03-14T13:02:23.021Z,100.00
2023-03-14T13:04:56.258Z,100.00
2023-03-14T13:07:56.541Z,100.00
2023-03-14T13:10:28.658Z,100.00
2023-03-14T13:12:57.951Z,100.00
2023-03-14T13:15:32.327Z,90.79
2023-03-14T13:18:29.747Z,85.65
2023-03-14T13:21:16.718Z,87.75
2023-03-14T13:24:08.712Z,84.01
2023-03-14T13:26:39.288Z,82.08
2023-03-14T13:29:26.948Z,82.45
2023-03-14T13:31:56.534Z,85.81
2023-03-14T13:34:26.461Z,85.31
2023-03-14T13:36:54.341Z,82.11
2023-03-14T13:39:23.794Z,82.60
2023-03-14T13:41:50.906Z,75.04
2023-03-14T13:44:32.707Z,74.39
2023-03-14T13:47:07.337Z,76.96
2023-03-14T13:49:34.586Z,75.27
2023-03-14T13:52:01.124Z,75.46
2023-03-14T13:54:28.403Z,75.58
2023-03-14T13:57:05.982Z,70.97
2023-03-14T13:59:34.655Z,74.61
2023-03-14T14:02:18.628Z,78.29
2023-03-14T14:04:45.563Z,77.00
2023-03-14T14:07:17.403Z,76.08
2023-03-14T14:09:48.379Z,70.84
2023-03-14T14:12:22.602Z,66.60
2023-03-14T14:14:58.561Z,61.88
2023-03-14T14:17:34.190Z,58.99
2023-03-14T14:20:03.698Z,59.23
2023-03-14T14:22:30.973Z,60.38
2023-03-14T14:24:57.710Z,62.49
2023-03-14T14:27:43.772Z,53.64
2023-03-14T14:30:19.010Z,54.36
2023-03-14T14:32:48.050Z,53.86
2023-03-14T14:35:33.773Z,55.35
2023-03-14T14:38:01.163Z,53.92
2023-03-14T14:40:31.865Z,54.69
2023-03-14T14:43:05.853Z,55.58
2023-03-14T14:45:35.905Z,56.07
2023-03-14T14:48:02.274Z,55.04
2023-03-14T14:50:28.772Z,56.41
2023-03-14T14:53:01.507Z,59.64
2023-03-14T14:55:34.341Z,57.57
2023-03-14T14:58:15.495Z,61.13
2023-03-14T15:00:43.050Z,60.91
2023-03-14T15:03:15.771Z,62.76
2023-03-14T15:05:42.235Z,61.22
2023-03-14T15:08:12.024Z,58.67
2023-03-14T15:10:38.978Z,59.54
2023-03-14T15:13:05.487Z,60.50
2023-03-14T15:15:32.408Z,60.96
2023-03-14T15:17:58.837Z,60.67
2023-03-14T15:20:25.266Z,61.14
2023-03-14T15:22:52.329Z,61.73
2023-03-14T15:25:43.628Z,59.94
2023-03-14T15:28:19.328Z,59.00
2023-03-14T15:30:45.849Z,59.21
2023-03-14T15:33:12.688Z,59.13
2023-03-14T15:35:39.564Z,61.75
2023-03-14T15:38:05.957Z,57.10
2023-03-14T15:40:32.464Z,55.50
2023-03-14T15:42:59.117Z,55.41
2023-03-14T15:45:25.734Z,56.01
2023-03-14T15:47:52.112Z,57.41
2023-03-14T15:50:18.848Z,58.64
2023-03-14T15:52:46.398Z,57.98
2023-03-14T15:55:13.281Z,58.17
2023-03-14T15:57:39.858Z,59.25
2023-03-14T16:00:08.851Z,61.86
2023-03-14T16:02:35.298Z,67.08
2023-03-14T16:05:02.207Z,68.06
2023-03-14T16:07:28.736Z,67.97
2023-03-14T16:09:55.713Z,69.93
2023-03-14T16:12:22.134Z,68.64
2023-03-14T16:14:49.141Z,69.93
2023-03-14T16:17:15.549Z,72.11
2023-03-14T16:19:42.479Z,73.57
2023-03-14T16:22:10.016Z,73.26
2023-03-14T16:24:36.595Z,74.63
2023-03-14T16:27:03.227Z,75.35
2023-03-14T16:29:31.542Z,74.57
2023-03-14T16:31:58.138Z,76.76
2023-03-14T16:34:24.888Z,76.95
2023-03-14T16:36:51.390Z,79.83
2023-03-14T16:39:19.320Z,76.35
2023-03-14T16:41:46.295Z,76.55
2023-03-14T16:44:12.988Z,80.47
2023-03-14T16:46:39.806Z,80.06
2023-03-14T16:49:06.306Z,79.92
2023-03-14T16:51:33.448Z,85.31
2023-03-14T16:54:00.041Z,90.19
2023-03-14T16:56:26.587Z,88.70
2023-03-14T16:58:52.965Z,89.11
2023-03-14T17:01:22.614Z,88.86
2023-03-14T17:03:50.921Z,86.80
2023-03-14T17:06:23.338Z,90.03
2023-03-14T17:08:50.263Z,89.01
2023-03-14T17:11:17.153Z,91.62
2023-03-14T17:13:44.071Z,91.93
2023-03-14T17:16:11.237Z,90.82
2023-03-14T17:18:40.762Z,92.10
2023-03-14T17:21:07.682Z,91.91
2023-03-14T17:23:35.138Z,91.46
2023-03-14T17:26:02.050Z,88.98
2023-03-14T17:28:28.825Z,91.07
2023-03-14T17:31:06.754Z,94.37
2023-03-14T17:33:34.403Z,97.19
2023-03-14T17:36:01.048Z,97.05
2023-03-14T17:38:27.825Z,99.22
2023-03-14T17:40:54.832Z,100.00
2023-03-14T17:43:21.384Z,100.00
2023-03-14T17:45:47.837Z,100.00
2023-03-14T17:48:14.660Z,100.00
2023-03-14T17:50:41.292Z,100.00
2023-03-14T17:53:08.332Z,100.00
2023-03-14T17:55:35.068Z,100.00
2023-03-14T17:58:01.473Z,100.00
2023-03-14T18:00:28.034Z,100.00
2023-03-14T18:02:57.670Z,100.00
2023-03-14T18:05:25.606Z,100.00
2023-03-14T18:07:52.194Z,100.00
2023-03-14T18:10:18.822Z,100.00
2023-03-14T18:12:45.257Z,100.00
2023-03-14T18:15:12.060Z,100.00
2023-03-14T18:17:38.994Z,100.00
2023-03-14T18:20:06.134Z,100.00
2023-03-14T18:22:32.781Z,100.00
2023-03-14T18:24:59.266Z,100.00
2023-03-14T18:27:27.128Z,100.00
2023-03-14T18:29:53.538Z,100.00
2023-03-14T18:32:20.100Z,100.00
2023-03-14T18:34:46.687Z,100.00
2023-03-14T18:37:13.218Z,100.00
2023-03-14T18:39:40.051Z,100.00
2023-03-14T18:42:08.959Z,100.00
2023-03-14T18:44:35.724Z,100.00
2023-03-14T18:47:02.169Z,100.00
2023-03-14T18:49:28.919Z,100.00
2023-03-14T18:51:57.063Z,100.00
2023-03-14T18:54:25.999Z,100.00
2023-03-14T18:56:52.634Z,100.00
2023-03-14T18:59:19.143Z,100.00
2023-03-14T19:01:45.766Z,100.00
2023-03-14T19:04:12.440Z,100.00
2023-03-14T19:06:39.718Z,100.00
2023-03-14T19:09:06.231Z,100.00
2023-03-14T19:11:32.996Z,100.00
2023-03-14T19:13:59.511Z,100.00
2023-03-14T19:16:26.372Z,100.00
2023-03-14T19:18:52.998Z,100.00
2023-03-14T19:21:30.909Z,100.00
2023-03-14T19:24:01.293Z,100.00
2023-03-14T19:26:28.036Z,100.00
2023-03-14T19:28:54.767Z,100.00
2023-03-14T19:31:21.573Z,100.00
2023-03-14T19:33:55.778Z,100.00
2023-03-14T19:36:37.798Z,100.00
2023-03-14T19:39:17.766Z,100.00
2023-03-14T19:41:44.651Z,100.00
2023-03-14T19:44:12.949Z,100.00
2023-03-14T19:46:39.633Z,100.00
2023-03-14T19:49:12.128Z,100.00
2023-03-14T19:51:38.749Z,100.00
2023-03-14T19:54:05.519Z,100.00
2023-03-14T19:56:33.019Z,100.00
2023-03-14T19:59:01.306Z,100.00
2023-03-14T20:01:27.819Z,100.00
2023-03-14T20:03:54.414Z,100.00
2023-03-14T20:06:21.447Z,100.00
2023-03-14T20:08:48.286Z,100.00
2023-03-14T20:11:14.936Z,100.00
2023-03-14T20:13:41.380Z,100.00
2023-03-14T20:16:08.486Z,100.00
2023-03-14T20:18:34.924Z,100.00
2023-03-14T20:21:05.731Z,100.00
2023-03-14T20:23:32.455Z,100.00
2023-03-14T20:25:59.780Z,100.00
2023-03-14T20:28:26.976Z,100.00
2023-03-14T20:30:53.853Z,100.00
2023-03-14T20:33:21.891Z,100.00
2023-03-14T20:36:00.057Z,100.00
2023-03-14T20:38:27.797Z,100.00
2023-03-14T20:40:59.080Z,100.00
2023-03-14T20:43:26.397Z,100.00
2023-03-14T20:45:57.994Z,100.00
2023-03-14T20:48:26.702Z,100.00
2023-03-14T20:50:54.789Z,100.00
2023-03-14T20:53:22.117Z,100.00
2023-03-14T20:55:51.122Z,100.00
2023-03-14T20:58:18.473Z,100.00
2023-03-14T21:00:48.320Z,100.00
2023-03-14T21:03:18.125Z,100.00
2023-03-14T21:05:46.296Z,100.00
2023-03-14T21:08:14.900Z,100.00
2023-03-14T21:10:41.590Z,100.00
2023-03-14T21:13:08.419Z,100.00
2023-03-14T21:15:37.230Z,100.00
2023-03-14T21:18:07.051Z,100.00
2023-03-14T21:20:34.633Z,100.00
2023-03-14T21:23:01.976Z,100.00
2023-03-14T21:25:31.873Z,100.00
2023-03-14T21:27:58.994Z,100.00
2023-03-14T21:30:25.990Z,100.00
2023-03-14T21:32:52.424Z,100.00
2023-03-14T21:35:18.896Z,100.00
2023-03-14T21:37:45.288Z,100.00
2023-03-14T21:40:12.656Z,100.00
2023-03-14T21:42:39.105Z,100.00
2023-03-14T21:45:07.832Z,100.00
2023-03-14T21:47:34.685Z,100.00
2023-03-14T21:50:01.453Z,100.00
2023-03-14T21:52:28.039Z,100.00
2023-03-14T21:54:54.513Z,100.00
2023-03-14T21:57:20.902Z,100.00
2023-03-14T21:59:47.327Z,100.00
2023-03-14T22:02:19.001Z,100.00
2023-03-14T22:04:45.557Z,100.00
2023-03-14T22:07:18.280Z,100.00
2023-03-14T22:09:45.856Z,100.00
2023-03-14T22:12:13.884Z,100.00
2023-03-14T22:14:40.240Z,100.00
2023-03-14T22:17:06.675Z,100.00
2023-03-14T22:19:36.252Z,100.00
2023-03-14T22:22:03.042Z,100.00
2023-03-14T22:24:29.644Z,100.00
2023-03-14T22:26:56.750Z,100.00
2023-03-14T22:29:24.015Z,100.00
2023-03-14T22:31:50.816Z,100.00
2023-03-14T22:34:17.257Z,100.00
2023-03-14T22:36:43.639Z,100.00
2023-03-14T22:39:10.368Z,100.00
2023-03-14T22:41:36.866Z,100.00
2023-03-14T22:44:03.822Z,100.00
2023-03-14T22:46:30.390Z,100.00
2023-03-14T22:48:57.056Z,100.00
2023-03-14T22:51:23.711Z,100.00
2023-03-14T22:53:50.383Z,100.00
2023-03-14T22:56:17.109Z,100.00
2023-03-14T22:58:43.636Z,100.00
2023-03-14T23:01:10.332Z,100.00
2023-03-14T23:03:36.781Z,100.00
2023-03-14T23:06:05.667Z,100.00
2023-03-14T23:08:32.526Z,100.00
2023-03-14T23:11:03.014Z,100.00
2023-03-14T23:13:30.433Z,100.00
2023-03-14T23:15:58.294Z,100.00
2023-03-14T23:18:25.527Z,100.00
2023-03-14T23:20:52.055Z,100.00
2023-03-14T23:23:18.533Z,100.00
2023-03-14T23:25:53.414Z,100.00
2023-03-14T23:28:20.224Z,100.00
2023-03-14T23:30:46.758Z,100.00
2023-03-14T23:33:13.423Z,100.00
2023-03-14T23:35:40.162Z,100.00
2023-03-14T23:38:06.584Z,100.00
2023-03-14T23:40:33.021Z,100.00
2023-03-14T23:42:59.459Z,100.00
2023-03-14T23:45:25.864Z,100.00
2023-03-14T23:47:52.392Z,100.00
2023-03-14T23:50:18.851Z,100.00
2023-03-14T23:52:45.597Z,100.00
2023-03-14T23:55:14.846Z,100.00
2023-03-14T23:57:41.348Z,100.00
